createdAt,value
2019-01-08T00:03:31.797Z,96339.14
2019-01-08T00:06:20.558Z,96348.17
2019-01-08T00:09:09.352Z,96332.80
2019-01-08T00:11:58.151Z,96332.80
2019-01-08T00:14:46.933Z,96322.41
2019-01-08T00:17:35.776Z,96328.50
2019-01-08T00:20:24.582Z,96314.99
2019-01-08T00:23:13.345Z,96312.94
2019-01-08T00:26:02.157Z,96295.09
2019-01-08T00:28:50.912Z,96295.86
2019-01-08T00:31:39.718Z,96266.20
2019-01-08T00:34:28.477Z,96279.80
2019-01-08T00:37:36.350Z,96281.41
2019-01-08T00:40:25.132Z,96279.88
2019-01-08T00:43:13.902Z,96281.99
2019-01-08T00:46:02.688Z,96275.05
2019-01-08T00:48:44.713Z,96201.63
2019-01-08T00:51:52.518Z,96268.46
2019-01-08T00:54:41.284Z,96266.51
2019-01-08T00:57:30.057Z,96232.19
2019-01-08T01:00:18.848Z,96179.19
2019-01-08T01:03:07.641Z,96262.14
2019-01-08T01:05:56.462Z,96254.73
2019-01-08T01:08:45.277Z,96246.62
2019-01-08T01:11:34.042Z,96245.62
2019-01-08T01:14:22.812Z,96242.98
2019-01-08T01:17:11.584Z,96237.70
2019-01-08T01:20:00.355Z,96191.78
2019-01-08T01:22:49.127Z,96227.84
2019-01-08T01:25:37.971Z,96221.78
2019-01-08T01:28:26.785Z,96215.75
2019-01-08T01:31:15.578Z,96213.19
2019-01-08T01:34:04.345Z,96199.61
2019-01-08T01:36:53.122Z,96194.97
2019-01-08T01:40:01.258Z,96198.92
2019-01-08T01:42:50.049Z,96193.73
2019-01-08T01:45:38.838Z,96138.11
2019-01-08T01:48:18.524Z,96091.20
2019-01-08T01:51:07.324Z,96131.31
2019-01-08T01:53:56.097Z,96181.00
2019-01-08T01:56:44.861Z,96168.21
2019-01-08T01:59:33.627Z,96155.59
2019-01-08T02:02:03.064Z,96146.51
2019-01-08T02:04:32.486Z,96136.66
2019-01-08T02:07:21.278Z,96140.34
2019-01-08T05:14:49.366Z,95613.73
2019-01-08T05:17:38.399Z,95659.26
2019-01-08T05:20:27.157Z,95649.51
2019-01-08T05:23:15.988Z,95648.84
2019-01-08T05:26:04.742Z,95657.67
2019-01-08T05:31:48.276Z,95617.09
2019-01-08T05:34:37.080Z,95631.33
2019-01-08T05:37:25.857Z,95631.66
2019-01-08T05:40:33.655Z,95611.98
2019-01-08T05:43:22.418Z,95648.66
2019-01-08T05:45:51.842Z,95622.95
2019-01-08T05:48:40.820Z,95599.34
2019-01-08T05:51:10.354Z,95601.11
2019-01-08T05:53:39.822Z,95599.11
2019-01-08T05:56:09.302Z,95600.42
2019-01-08T05:58:38.760Z,95593.53
2019-01-08T06:01:08.210Z,95601.67
2019-01-08T06:03:37.668Z,95605.62
2019-01-08T06:06:07.793Z,95594.56
2019-01-08T06:08:37.349Z,95578.66
2019-01-08T06:11:06.824Z,95612.55
2019-01-08T06:13:36.281Z,95587.92
2019-01-08T06:16:05.807Z,95592.28
2019-01-08T06:18:35.398Z,95584.16
2019-01-08T06:21:04.835Z,95572.50
2019-01-08T06:23:34.309Z,95564.60
2019-01-08T06:26:03.761Z,95584.16
2019-01-08T06:28:33.392Z,95576.48
2019-01-08T06:31:02.839Z,95586.80
2019-01-08T06:33:32.363Z,95572.85
2019-01-08T06:36:01.810Z,95565.33
2019-01-08T06:38:31.759Z,95574.67
2019-01-08T06:41:02.922Z,95571.31
2019-01-08T06:43:32.415Z,95569.78
2019-01-08T06:46:01.905Z,95564.23
2019-01-08T06:48:31.482Z,95602.14
2019-01-08T06:51:01.302Z,95569.50
2019-01-08T06:53:30.819Z,95565.33
2019-01-08T06:56:00.272Z,95566.66
2019-01-08T06:58:29.748Z,95564.20
2019-01-08T07:00:59.256Z,95556.61
2019-01-08T07:03:32.470Z,95554.19
2019-01-08T07:06:02.033Z,95557.61
2019-01-08T07:08:31.528Z,95566.84
2019-01-08T07:11:00.981Z,95556.93
2019-01-08T07:13:30.499Z,95548.59
2019-01-08T07:15:59.950Z,95560.56
2019-01-08T07:18:29.486Z,95547.09
2019-01-08T07:20:58.961Z,95550.63
2019-01-08T07:23:28.472Z,95570.39
2019-01-08T07:25:57.959Z,95558.25
2019-01-08T07:28:29.248Z,95557.64
2019-01-08T07:30:58.847Z,95561.06
2019-01-08T07:33:28.370Z,95554.59
2019-01-08T07:35:57.948Z,95556.22
2019-01-08T07:38:27.439Z,95549.09
2019-01-08T07:40:56.885Z,95554.48
2019-01-08T07:43:26.799Z,95549.09
2019-01-08T07:45:56.281Z,95538.88
2019-01-08T07:48:25.751Z,95551.95
2019-01-08T07:50:55.238Z,95538.66
2019-01-08T07:53:24.689Z,95544.64
2019-01-08T07:55:54.219Z,95534.10
2019-01-08T07:58:23.756Z,95541.30
2019-01-08T08:00:53.244Z,95539.37
2019-01-08T08:03:22.761Z,95552.16
2019-01-08T08:05:52.294Z,95538.88
2019-01-08T08:08:21.741Z,95520.52
2019-01-08T08:10:51.254Z,95519.48
2019-01-08T08:13:20.724Z,95532.45
2019-01-08T08:15:50.582Z,95519.37
2019-01-08T08:18:20.592Z,95522.55
2019-01-08T08:20:50.507Z,95506.73
2019-01-08T08:23:19.990Z,95518.06
2019-01-08T08:25:49.462Z,95509.36
2019-01-08T08:28:18.914Z,95511.79
2019-01-08T08:30:48.395Z,95521.23
2019-01-08T08:33:17.844Z,95529.02
2019-01-08T08:35:47.486Z,95518.77
2019-01-08T08:38:16.956Z,95531.06
2019-01-08T08:40:46.419Z,95534.98
2019-01-08T08:43:15.992Z,95509.53
2019-01-08T08:45:45.457Z,95519.48
2019-01-08T08:48:15.017Z,95519.97
2019-01-08T08:50:44.598Z,95517.54
2019-01-08T08:53:14.395Z,95520.68
2019-01-08T08:55:44.511Z,95532.16
2019-01-08T08:58:13.974Z,95540.25
2019-01-08T09:00:43.454Z,95543.07
2019-01-08T09:03:12.970Z,95513.02
2019-01-08T09:05:42.518Z,95515.33
2019-01-08T09:08:12.027Z,95514.91
2019-01-08T09:10:41.530Z,95511.05
2019-01-08T09:13:10.987Z,95518.70
2019-01-08T09:15:40.534Z,95515.41
2019-01-08T09:18:09.976Z,95512.34
2019-01-08T09:20:40.990Z,95526.91
2019-01-08T09:23:10.472Z,95525.77
2019-01-08T09:25:39.992Z,95515.03
2019-01-08T09:28:09.928Z,95515.05
2019-01-08T09:30:39.744Z,95519.25
2019-01-08T09:33:09.215Z,95513.85
2019-01-08T09:35:38.688Z,95514.13
2019-01-08T09:38:08.169Z,95512.83
2019-01-08T09:40:37.656Z,95512.05
2019-01-08T09:43:07.215Z,95505.80
2019-01-08T09:45:36.666Z,95502.05
2019-01-08T09:48:06.137Z,95504.17
2019-01-08T09:50:35.629Z,95493.44
2019-01-08T09:53:05.128Z,95486.23
2019-01-08T09:55:34.599Z,95489.53
2019-01-08T09:58:04.036Z,95482.08
2019-01-08T10:00:33.515Z,95492.70
2019-01-08T10:03:03.430Z,95490.56
2019-01-08T10:05:33.558Z,95512.55
2019-01-08T10:08:03.120Z,95487.92
2019-01-08T10:10:32.625Z,95486.86
2019-01-08T10:13:02.079Z,95484.82
2019-01-08T10:15:31.643Z,95497.78
2019-01-08T10:18:01.099Z,95495.22
2019-01-08T10:20:30.577Z,95486.70
2019-01-08T10:23:00.034Z,95477.66
2019-01-08T10:25:29.984Z,95478.94
2019-01-08T10:27:59.424Z,95484.34
2019-01-08T10:30:28.962Z,95471.17
2019-01-08T10:32:58.480Z,95459.95
2019-01-08T10:35:27.942Z,95454.92
2019-01-08T10:37:57.834Z,95455.02
2019-01-08T10:40:28.054Z,95469.02
2019-01-08T10:42:57.605Z,95458.36
2019-01-08T10:45:46.432Z,95463.89
2019-01-08T10:48:35.312Z,95463.14
2019-01-08T10:51:24.177Z,95414.63
2019-01-08T10:54:12.985Z,95450.55
2019-01-08T10:57:01.870Z,95432.59
2019-01-08T10:59:50.677Z,95441.25
2019-01-08T11:02:39.532Z,95433.45
2019-01-08T11:05:21.101Z,95437.01
2019-01-08T11:07:50.592Z,95416.38
2019-01-08T11:10:20.071Z,95419.20
2019-01-08T11:12:49.530Z,95416.45
2019-01-08T11:15:19.494Z,95421.81
2019-01-08T11:17:48.951Z,95417.08
2019-01-08T11:20:18.492Z,95412.43
2019-01-08T11:22:47.948Z,95428.02
2019-01-08T11:25:17.627Z,95435.16
2019-01-08T11:27:47.090Z,95424.22
2019-01-08T11:30:16.582Z,95407.53
2019-01-08T11:32:46.167Z,95414.42
2019-01-08T11:35:15.650Z,95400.94
2019-01-08T11:37:45.132Z,95407.28
2019-01-08T11:40:14.605Z,95409.08
2019-01-08T11:42:44.086Z,95402.70
2019-01-08T11:45:13.545Z,95400.34
2019-01-08T11:47:43.023Z,95406.03
2019-01-08T11:50:13.193Z,95388.34
2019-01-08T11:52:43.227Z,95383.77
2019-01-08T11:55:12.688Z,95377.25
2019-01-08T11:57:43.686Z,95362.30
2019-01-08T12:00:14.558Z,95365.48
2019-01-08T12:02:47.871Z,95372.55
2019-01-08T12:05:15.197Z,95347.13
2019-01-08T12:07:44.704Z,95348.48
2019-01-08T12:10:14.159Z,95330.47
2019-01-08T12:12:43.661Z,95332.83
2019-01-08T12:15:13.116Z,95329.53
2019-01-08T12:17:42.599Z,95368.86
2019-01-08T12:20:13.389Z,95315.45
2019-01-08T12:22:42.858Z,95313.17
2019-01-08T12:25:12.723Z,95312.00
2019-01-08T12:27:42.266Z,95342.84
2019-01-08T12:30:12.151Z,95329.09
2019-01-08T12:32:41.630Z,95310.47
2019-01-08T12:35:11.080Z,95317.46
2019-01-08T12:37:42.121Z,95303.30
2019-01-08T12:40:11.708Z,95311.82
2019-01-08T12:42:41.197Z,95296.53
2019-01-08T12:45:10.723Z,95294.99
2019-01-08T12:47:40.201Z,95279.81
2019-01-08T12:50:09.815Z,95295.65
2019-01-08T12:52:39.439Z,95286.50
2019-01-08T12:55:09.012Z,95286.19
2019-01-08T12:57:38.965Z,95281.20
2019-01-08T13:00:11.396Z,95273.50
2019-01-08T13:02:40.908Z,95268.84
2019-01-08T13:05:10.399Z,95272.59
2019-01-08T13:07:39.907Z,95268.53
2019-01-08T13:10:09.732Z,95274.75
2019-01-08T13:12:39.284Z,95261.58
2019-01-08T13:15:08.859Z,95259.48
2019-01-08T13:17:38.339Z,95267.48
2019-01-08T13:20:09.000Z,95271.94
2019-01-08T13:22:38.506Z,95260.06
2019-01-08T13:25:08.677Z,95256.53
2019-01-08T13:27:38.184Z,95237.95
2019-01-08T13:30:09.194Z,95260.85
2019-01-08T13:32:38.747Z,95252.91
2019-01-08T13:35:08.258Z,95244.55
2019-01-08T13:37:37.829Z,95257.03
2019-01-08T13:40:07.774Z,95248.88
2019-01-08T13:42:37.271Z,95254.84
2019-01-08T13:45:08.564Z,95260.55
2019-01-08T13:47:38.109Z,95252.82
2019-01-08T13:50:09.434Z,95251.50
2019-01-08T13:52:38.980Z,95258.50
2019-01-08T13:55:08.600Z,95239.53
2019-01-08T13:57:38.120Z,95241.82
2019-01-08T14:00:09.556Z,95242.94
2019-01-08T14:02:39.644Z,95235.52
2019-01-08T14:05:09.268Z,95227.70
2019-01-08T14:07:38.763Z,95218.11
2019-01-08T14:10:08.775Z,95229.64
2019-01-08T14:12:39.216Z,95215.54
2019-01-08T14:15:08.715Z,95214.45
2019-01-08T14:17:38.212Z,95216.08
2019-01-08T14:20:09.117Z,95218.26
2019-01-08T14:22:38.626Z,95258.30
2019-01-08T14:25:08.352Z,95228.20
2019-01-08T14:27:37.886Z,95236.48
2019-01-08T14:30:10.418Z,95242.20
2019-01-08T14:32:40.882Z,95231.63
2019-01-08T14:35:10.988Z,95239.78
2019-01-08T14:37:41.005Z,95251.83
2019-01-08T14:40:10.533Z,95246.31
2019-01-08T14:42:40.040Z,95235.66
2019-01-08T14:45:09.564Z,95256.16
2019-01-08T14:47:39.016Z,95245.00
2019-01-08T14:50:09.093Z,95247.05
2019-01-08T14:52:38.653Z,95242.58
2019-01-08T14:55:08.179Z,95256.36
2019-01-08T14:57:37.704Z,95250.27
2019-01-08T15:00:10.044Z,95257.77
2019-01-08T15:02:39.517Z,95274.45
2019-01-08T15:05:09.100Z,95248.58
2019-01-08T15:07:38.557Z,95239.40
2019-01-08T15:10:09.733Z,95242.44
2019-01-08T15:12:39.720Z,95248.22
2019-01-08T15:15:09.362Z,95228.81
2019-01-08T15:17:38.851Z,95239.91
2019-01-08T15:20:08.857Z,95236.23
2019-01-08T15:22:38.441Z,95225.98
2019-01-08T15:25:07.980Z,95230.00
2019-01-08T15:27:37.425Z,95216.66
2019-01-08T15:30:10.304Z,95204.24
2019-01-08T15:32:39.740Z,95221.19
2019-01-08T15:35:09.226Z,95234.84
2019-01-08T15:37:38.721Z,95215.70
2019-01-08T15:40:08.324Z,95206.52
2019-01-08T15:42:37.833Z,95218.52
2019-01-08T15:45:07.917Z,95195.66
2019-01-08T15:47:38.035Z,95204.77
2019-01-08T15:50:08.810Z,95180.68
2019-01-08T15:52:38.319Z,95195.38
2019-01-08T15:55:07.784Z,95192.73
2019-01-08T15:57:37.238Z,95208.43
2019-01-08T16:00:10.334Z,95213.13
2019-01-08T16:02:39.843Z,95201.24
2019-01-08T16:05:10.379Z,95200.72
2019-01-08T16:07:40.038Z,95186.41
2019-01-08T16:10:09.615Z,95196.08
2019-01-08T16:12:39.142Z,95182.59
2019-01-08T16:15:09.679Z,95198.52
2019-01-08T16:17:39.172Z,95201.67
2019-01-08T16:20:09.072Z,95185.16
2019-01-08T16:22:38.885Z,95184.55
2019-01-08T16:25:08.726Z,95180.98
2019-01-08T16:27:38.213Z,95197.84
2019-01-08T16:30:08.862Z,95191.84
2019-01-08T16:32:38.367Z,95198.02
2019-01-08T16:35:07.854Z,95218.25
2019-01-08T16:37:37.304Z,95189.62
2019-01-08T16:40:10.028Z,95184.81
2019-01-08T16:42:39.506Z,95180.73
2019-01-08T16:45:09.068Z,95186.46
2019-01-08T16:47:38.567Z,95165.66
2019-01-08T16:50:08.461Z,95161.83
2019-01-08T16:52:38.026Z,95167.61
2019-01-08T16:55:07.590Z,95161.38
2019-01-08T16:57:37.500Z,95173.03
2019-01-08T17:00:12.491Z,95153.06
2019-01-08T17:02:41.995Z,95166.58
2019-01-08T17:05:11.470Z,95162.25
2019-01-08T17:07:41.014Z,95159.67
2019-01-08T17:10:11.032Z,95139.09
2019-01-08T17:12:43.649Z,95143.09
2019-01-08T17:15:13.113Z,95130.05
2019-01-08T17:18:01.954Z,95116.61
2019-01-08T17:20:44.218Z,95106.48
2019-01-08T17:23:13.825Z,95073.75
2019-01-08T17:25:52.087Z,95148.70
2019-01-08T17:28:21.675Z,95138.37
2019-01-08T17:30:51.202Z,95138.23
2019-01-08T17:33:20.746Z,95152.91
2019-01-08T17:35:50.245Z,95129.16
2019-01-08T17:38:19.796Z,95151.63
2019-01-08T17:40:49.253Z,95117.41
2019-01-08T17:43:18.870Z,95146.52
2019-01-08T17:45:48.445Z,95119.28
2019-01-08T17:48:18.086Z,95127.15
2019-01-08T17:50:47.679Z,95117.52
2019-01-08T17:53:18.610Z,95130.17
2019-01-08T17:55:49.046Z,95113.81
2019-01-08T17:58:36.544Z,95114.97
2019-01-08T18:01:17.701Z,95105.45
2019-01-08T18:03:48.579Z,95113.48
2019-01-08T18:06:18.098Z,95099.64
2019-01-08T18:08:47.689Z,95106.38
2019-01-08T18:11:17.211Z,95095.61
2019-01-08T18:13:47.835Z,95109.58
2019-01-08T18:16:17.427Z,95110.72
2019-01-08T18:18:47.045Z,95094.48
2019-01-08T18:21:16.575Z,95086.03
2019-01-08T18:23:46.273Z,95131.58
2019-01-08T18:26:15.786Z,95097.22
2019-01-08T18:28:45.431Z,95105.13
2019-01-08T18:31:14.938Z,95093.13
2019-01-08T18:33:51.495Z,95107.91
2019-01-08T18:36:15.835Z,95113.81
2019-01-08T18:38:45.372Z,95102.84
2019-01-08T18:41:14.963Z,95080.28
2019-01-08T18:43:44.542Z,95096.70
2019-01-08T18:46:14.084Z,95104.58
2019-01-08T18:48:43.666Z,95131.64
2019-01-08T18:51:13.249Z,95103.64
2019-01-08T18:53:43.672Z,95112.86
2019-01-08T18:56:13.268Z,95120.27
2019-01-08T18:58:42.833Z,95103.95
2019-01-08T19:01:12.453Z,95106.88
2019-01-08T19:03:42.001Z,95123.55
2019-01-08T19:06:11.544Z,95121.77
2019-01-08T19:09:27.155Z,95125.14
2019-01-08T19:11:57.074Z,95125.17
2019-01-08T19:14:30.950Z,95124.80
2019-01-08T19:17:00.722Z,95127.27
2019-01-08T19:19:30.246Z,95135.67
2019-01-08T19:21:59.736Z,95117.56
2019-01-08T19:24:29.302Z,95133.88
2019-01-08T19:26:58.843Z,95128.75
2019-01-08T19:29:28.317Z,95122.93
2019-01-08T19:31:59.372Z,95126.87
2019-01-08T19:34:28.941Z,95114.09
2019-01-08T19:36:58.469Z,95102.14
2019-01-08T19:39:28.005Z,95100.52
2019-01-08T19:41:57.429Z,95115.92
2019-01-08T19:44:27.153Z,95103.66
2019-01-08T19:46:56.621Z,95096.87
2019-01-08T19:49:26.228Z,95106.05
2019-01-08T19:51:55.718Z,95111.68
2019-01-08T19:54:25.304Z,95111.12
2019-01-08T19:56:54.725Z,95149.09
2019-01-08T19:59:24.211Z,95123.55
2019-01-08T20:01:53.627Z,95134.80
2019-01-08T20:04:23.156Z,95107.92
2019-01-08T20:06:52.586Z,95127.23
2019-01-08T20:09:25.488Z,95111.98
2019-01-08T20:11:53.198Z,95114.99
2019-01-08T20:14:23.066Z,95107.80
2019-01-08T20:16:52.524Z,95111.23
2019-01-08T20:19:21.986Z,95115.94
2019-01-08T20:21:51.423Z,95111.75
2019-01-08T20:24:20.933Z,95112.86
2019-01-08T20:26:50.455Z,95111.17
2019-01-08T20:29:19.933Z,95116.45
2019-01-08T20:31:49.358Z,95114.03
2019-01-08T20:34:26.433Z,95114.59
2019-01-08T20:36:49.999Z,95104.19
2019-01-08T20:39:19.478Z,95102.14
2019-01-08T20:41:48.910Z,95109.52
2019-01-08T20:44:18.364Z,95111.06
2019-01-08T20:46:47.810Z,95114.06
2019-01-08T20:49:17.272Z,95109.05
2019-01-08T20:51:46.699Z,95094.95
2019-01-08T20:54:16.190Z,95099.95
2019-01-08T20:56:46.591Z,95081.93
2019-01-08T20:59:16.068Z,95097.98
2019-01-08T21:01:45.505Z,95097.95
2019-01-08T21:04:15.027Z,95094.06
2019-01-08T21:06:44.531Z,95087.27
2019-01-08T21:09:14.049Z,95093.25
2019-01-08T21:11:43.522Z,95091.11
2019-01-08T21:14:12.997Z,95089.31
2019-01-08T21:16:42.454Z,95080.22
2019-01-08T21:19:11.942Z,95085.14
2019-01-08T21:21:41.374Z,95077.92
2019-01-08T21:24:10.847Z,95072.54
2019-01-08T21:26:40.286Z,95095.38
2019-01-08T21:29:09.808Z,95094.79
2019-01-08T21:31:39.262Z,95070.46
2019-01-08T21:34:08.769Z,95081.69
2019-01-08T21:36:38.257Z,95087.30
2019-01-08T21:39:07.739Z,95091.84
2019-01-08T21:41:37.254Z,95077.92
2019-01-08T21:44:06.674Z,95079.47
2019-01-08T21:46:36.108Z,95082.30
2019-01-08T21:49:05.563Z,95098.58
2019-01-08T21:51:34.987Z,95073.21
2019-01-08T21:54:04.422Z,95078.20
2019-01-08T21:56:34.012Z,95075.06
2019-01-08T21:59:03.515Z,95080.42
2019-01-08T22:01:33.067Z,95071.70
2019-01-08T22:04:02.518Z,95075.62
2019-01-08T22:06:32.056Z,95072.28
2019-01-08T22:09:01.492Z,95072.48
2019-01-08T22:11:30.918Z,95067.25
2019-01-08T22:14:00.359Z,95064.67
2019-01-08T22:16:29.795Z,95060.72
2019-01-08T22:18:59.257Z,95064.69
2019-01-08T22:21:28.698Z,95062.16
2019-01-08T22:23:58.134Z,95056.49
2019-01-08T22:26:27.597Z,95060.48
2019-01-08T22:29:02.199Z,95063.70
2019-01-08T22:31:31.840Z,95059.22
2019-01-08T22:34:01.466Z,95048.05
2019-01-08T22:36:31.884Z,95056.05
2019-01-08T22:39:05.160Z,95038.17
2019-01-08T22:41:34.652Z,95041.59
2019-01-08T22:44:05.976Z,95018.97
2019-01-08T22:46:35.585Z,95040.55
2019-01-08T22:49:05.147Z,95034.22
2019-01-08T22:51:34.573Z,95001.58
2019-01-08T22:54:04.019Z,95012.54
2019-01-08T22:56:33.423Z,95007.19
2019-01-08T22:59:23.728Z,95000.31
2019-01-08T23:01:53.430Z,95010.16
2019-01-08T23:04:23.071Z,95010.21
2019-01-08T23:06:52.502Z,94995.93
2019-01-08T23:09:22.360Z,94999.69
2019-01-08T23:11:51.783Z,94986.41
2019-01-08T23:14:21.208Z,94980.66
2019-01-08T23:16:50.705Z,94981.50
2019-01-08T23:19:20.116Z,94998.30
2019-01-08T23:21:49.562Z,94977.23
2019-01-08T23:24:38.371Z,94976.75
2019-01-08T23:27:27.124Z,94971.97
2019-01-08T23:30:15.903Z,94970.37
2019-01-08T23:33:04.740Z,94964.08
2019-01-08T23:35:54.074Z,94968.48
2019-01-08T23:38:24.067Z,94977.06
2019-01-08T23:40:53.987Z,94978.59
2019-01-08T23:43:23.572Z,94961.00
2019-01-08T23:45:53.025Z,94973.58
2019-01-08T23:48:22.511Z,94977.06
2019-01-08T23:50:52.143Z,94963.77
2019-01-08T23:53:32.052Z,94962.30
2019-01-08T23:56:03.748Z,94957.44
2019-01-08T23:58:33.216Z,94955.41
